sensor_id;sensor_type;location;lat;lon;timestamp;P1;durP1;ratioP1;P2;durP2;ratioP2
7027;SDS011;3555;53.248;10.336;2022-09-13T00:01:52;3.35;;;2.17;;
7027;SDS011;3555;53.248;10.336;2022-09-13T00:04:19;2.83;;;2.20;;
7027;SDS011;3555;53.248;10.336;2022-09-13T00:06:46;3.78;;;2.30;;
7027;SDS011;3555;53.248;10.336;2022-09-13T00:09:12;4.85;;;2.35;;
7027;SDS011;3555;53.248;10.336;2022-09-13T00:11:39;2.50;;;2.30;;
7027;SDS011;3555;53.248;10.336;2022-09-13T00:14:07;2.80;;;2.25;;
7027;SDS011;3555;53.248;10.336;2022-09-13T00:16:34;4.50;;;2.35;;
7027;SDS011;3555;53.248;10.336;2022-09-13T00:19:01;4.25;;;2.30;;
7027;SDS011;3555;53.248;10.336;2022-09-13T00:21:28;3.30;;;2.10;;
7027;SDS011;3555;53.248;10.336;2022-09-13T00:23:54;3.85;;;2.20;;
7027;SDS011;3555;53.248;10.336;2022-09-13T00:26:22;3.30;;;1.90;;
7027;SDS011;3555;53.248;10.336;2022-09-13T00:28:52;3.28;;;2.20;;
7027;SDS011;3555;53.248;10.336;2022-09-13T00:31:21;2.45;;;2.20;;
7027;SDS011;3555;53.248;10.336;2022-09-13T00:33:50;4.70;;;2.50;;
7027;SDS011;3555;53.248;10.336;2022-09-13T00:36:17;2.95;;;2.00;;
7027;SDS011;3555;53.248;10.336;2022-09-13T00:38:44;4.55;;;2.08;;
7027;SDS011;3555;53.248;10.336;2022-09-13T00:41:12;2.35;;;1.92;;
7027;SDS011;3555;53.248;10.336;2022-09-13T00:43:41;2.70;;;2.30;;
7027;SDS011;3555;53.248;10.336;2022-09-13T00:46:10;2.53;;;2.20;;
7027;SDS011;3555;53.248;10.336;2022-09-13T00:48:40;4.70;;;2.30;;
7027;SDS011;3555;53.248;10.336;2022-09-13T00:51:07;4.55;;;2.55;;
7027;SDS011;3555;53.248;10.336;2022-09-13T00:53:35;3.00;;;2.40;;
7027;SDS011;3555;53.248;10.336;2022-09-13T00:56:08;3.70;;;2.08;;
7027;SDS011;3555;53.248;10.336;2022-09-13T00:58:38;3.10;;;2.10;;
7027;SDS011;3555;53.248;10.336;2022-09-13T01:01:09;3.00;;;2.17;;
7027;SDS011;3555;53.248;10.336;2022-09-13T01:03:40;4.50;;;2.22;;
7027;SDS011;3555;53.248;10.336;2022-09-13T01:06:10;3.28;;;2.05;;
7027;SDS011;3555;53.248;10.336;2022-09-13T01:08:40;2.50;;;2.15;;
7027;SDS011;3555;53.248;10.336;2022-09-13T01:11:13;3.60;;;2.22;;
7027;SDS011;3555;53.248;10.336;2022-09-13T01:13:46;4.35;;;2.20;;
7027;SDS011;3555;53.248;10.336;2022-09-13T01:16:15;4.43;;;2.35;;
7027;SDS011;3555;53.248;10.336;2022-09-13T01:18:43;4.20;;;2.30;;
7027;SDS011;3555;53.248;10.336;2022-09-13T01:21:25;3.35;;;2.13;;
7027;SDS011;3555;53.248;10.336;2022-09-13T01:27:31;5.32;;;2.95;;
7027;SDS011;3555;53.248;10.336;2022-09-13T01:30:13;2.85;;;2.13;;
7027;SDS011;3555;53.248;10.336;2022-09-13T01:32:52;5.45;;;2.30;;
7027;SDS011;3555;53.248;10.336;2022-09-13T01:35:50;3.38;;;2.40;;
7027;SDS011;3555;53.248;10.336;2022-09-13T01:38:41;3.13;;;2.38;;
7027;SDS011;3555;53.248;10.336;2022-09-13T01:41:19;5.05;;;3.40;;
7027;SDS011;3555;53.248;10.336;2022-09-13T01:44:02;4.38;;;3.00;;
7027;SDS011;3555;53.248;10.336;2022-09-13T01:46:38;5.68;;;3.00;;
7027;SDS011;3555;53.248;10.336;2022-09-13T01:49:13;4.18;;;3.15;;
7027;SDS011;3555;53.248;10.336;2022-09-13T01:51:46;5.32;;;3.22;;
7027;SDS011;3555;53.248;10.336;2022-09-13T01:54:19;3.13;;;2.83;;
7027;SDS011;3555;53.248;10.336;2022-09-13T01:56:53;7.38;;;3.30;;
7027;SDS011;3555;53.248;10.336;2022-09-13T01:59:27;5.10;;;3.15;;
7027;SDS011;3555;53.248;10.336;2022-09-13T02:02:03;6.57;;;3.80;;
7027;SDS011;3555;53.248;10.336;2022-09-13T02:04:38;5.95;;;3.30;;
7027;SDS011;3555;53.248;10.336;2022-09-13T02:07:09;4.57;;;3.10;;
7027;SDS011;3555;53.248;10.336;2022-09-13T02:09:39;4.60;;;3.20;;
7027;SDS011;3555;53.248;10.336;2022-09-13T02:12:14;4.53;;;3.47;;
7027;SDS011;3555;53.248;10.336;2022-09-13T02:14:46;11.55;;;3.50;;
7027;SDS011;3555;53.248;10.336;2022-09-13T02:17:19;5.65;;;3.80;;
7027;SDS011;3555;53.248;10.336;2022-09-13T02:19:49;4.75;;;3.17;;
7027;SDS011;3555;53.248;10.336;2022-09-13T02:22:20;8.48;;;3.80;;
7027;SDS011;3555;53.248;10.336;2022-09-13T02:24:50;4.70;;;4.10;;
7027;SDS011;3555;53.248;10.336;2022-09-13T02:27:21;3.70;;;3.28;;
7027;SDS011;3555;53.248;10.336;2022-09-13T02:29:52;5.07;;;3.67;;
7027;SDS011;3555;53.248;10.336;2022-09-13T02:32:25;7.68;;;3.90;;
7027;SDS011;3555;53.248;10.336;2022-09-13T02:34:57;5.47;;;3.70;;
7027;SDS011;3555;53.248;10.336;2022-09-13T02:37:31;5.78;;;4.13;;
7027;SDS011;3555;53.248;10.336;2022-09-13T02:40:01;7.88;;;3.78;;
7027;SDS011;3555;53.248;10.336;2022-09-13T02:42:33;6.03;;;4.32;;
7027;SDS011;3555;53.248;10.336;2022-09-13T02:45:03;5.82;;;4.13;;
7027;SDS011;3555;53.248;10.336;2022-09-13T02:47:39;6.03;;;4.38;;
7027;SDS011;3555;53.248;10.336;2022-09-13T02:50:14;7.82;;;4.70;;
7027;SDS011;3555;53.248;10.336;2022-09-13T02:52:49;6.85;;;4.50;;
7027;SDS011;3555;53.248;10.336;2022-09-13T02:55:28;6.88;;;5.07;;
7027;SDS011;3555;53.248;10.336;2022-09-13T02:58:05;6.63;;;4.57;;
7027;SDS011;3555;53.248;10.336;2022-09-13T03:00:37;5.50;;;4.60;;
7027;SDS011;3555;53.248;10.336;2022-09-13T03:03:06;11.07;;;4.90;;
7027;SDS011;3555;53.248;10.336;2022-09-13T03:05:36;7.70;;;4.70;;
7027;SDS011;3555;53.248;10.336;2022-09-13T03:08:03;6.55;;;4.78;;
7027;SDS011;3555;53.248;10.336;2022-09-13T03:10:33;6.07;;;5.22;;
7027;SDS011;3555;53.248;10.336;2022-09-13T03:13:13;6.60;;;4.68;;
7027;SDS011;3555;53.248;10.336;2022-09-13T03:15:59;6.35;;;5.10;;
7027;SDS011;3555;53.248;10.336;2022-09-13T03:18:40;7.43;;;5.43;;
7027;SDS011;3555;53.248;10.336;2022-09-13T03:21:26;5.60;;;5.00;;
7027;SDS011;3555;53.248;10.336;2022-09-13T03:24:06;8.52;;;5.57;;
7027;SDS011;3555;53.248;10.336;2022-09-13T03:26:42;11.38;;;5.47;;
7027;SDS011;3555;53.248;10.336;2022-09-13T03:29:20;9.43;;;6.20;;
7027;SDS011;3555;53.248;10.336;2022-09-13T03:31:57;6.30;;;5.50;;
7027;SDS011;3555;53.248;10.336;2022-09-13T03:34:33;7.82;;;5.13;;
7027;SDS011;3555;53.248;10.336;2022-09-13T03:37:09;7.25;;;5.15;;
7027;SDS011;3555;53.248;10.336;2022-09-13T03:39:42;8.57;;;5.50;;
7027;SDS011;3555;53.248;10.336;2022-09-13T03:42:16;7.20;;;5.53;;
7027;SDS011;3555;53.248;10.336;2022-09-13T03:44:47;8.30;;;5.10;;
7027;SDS011;3555;53.248;10.336;2022-09-13T03:47:16;10.65;;;5.45;;
7027;SDS011;3555;53.248;10.336;2022-09-13T03:49:45;6.80;;;4.35;;
7027;SDS011;3555;53.248;10.336;2022-09-13T03:52:15;5.70;;;5.10;;
7027;SDS011;3555;53.248;10.336;2022-09-13T03:54:42;9.25;;;5.63;;
7027;SDS011;3555;53.248;10.336;2022-09-13T03:57:09;7.18;;;5.68;;
7027;SDS011;3555;53.248;10.336;2022-09-13T03:59:38;9.45;;;6.13;;
7027;SDS011;3555;53.248;10.336;2022-09-13T04:02:09;6.10;;;5.47;;
7027;SDS011;3555;53.248;10.336;2022-09-13T04:04:36;8.15;;;6.45;;
7027;SDS011;3555;53.248;10.336;2022-09-13T04:07:04;7.32;;;5.93;;
7027;SDS011;3555;53.248;10.336;2022-09-13T04:09:32;5.72;;;5.15;;
7027;SDS011;3555;53.248;10.336;2022-09-13T04:11:59;6.78;;;5.72;;
7027;SDS011;3555;53.248;10.336;2022-09-13T04:14:25;9.18;;;5.82;;
7027;SDS011;3555;53.248;10.336;2022-09-13T04:16:52;6.88;;;6.18;;
7027;SDS011;3555;53.248;10.336;2022-09-13T04:19:20;6.85;;;5.70;;
7027;SDS011;3555;53.248;10.336;2022-09-13T04:21:47;8.40;;;6.45;;
7027;SDS011;3555;53.248;10.336;2022-09-13T04:24:16;7.47;;;5.30;;
7027;SDS011;3555;53.248;10.336;2022-09-13T04:26:43;6.93;;;5.70;;
7027;SDS011;3555;53.248;10.336;2022-09-13T04:29:10;7.25;;;5.72;;
7027;SDS011;3555;53.248;10.336;2022-09-13T04:31:37;7.55;;;5.80;;
7027;SDS011;3555;53.248;10.336;2022-09-13T04:34:04;8.00;;;6.40;;
7027;SDS011;3555;53.248;10.336;2022-09-13T04:36:32;8.02;;;5.80;;
7027;SDS011;3555;53.248;10.336;2022-09-13T04:38:59;10.80;;;6.40;;
7027;SDS011;3555;53.248;10.336;2022-09-13T04:41:27;7.18;;;6.25;;
7027;SDS011;3555;53.248;10.336;2022-09-13T04:43:56;6.97;;;6.28;;
7027;SDS011;3555;53.248;10.336;2022-09-13T04:46:23;8.45;;;6.40;;
7027;SDS011;3555;53.248;10.336;2022-09-13T04:48:50;8.43;;;7.00;;
7027;SDS011;3555;53.248;10.336;2022-09-13T04:51:18;8.63;;;7.13;;
7027;SDS011;3555;53.248;10.336;2022-09-13T04:53:46;10.65;;;7.85;;
7027;SDS011;3555;53.248;10.336;2022-09-13T04:56:16;8.55;;;7.18;;
7027;SDS011;3555;53.248;10.336;2022-09-13T04:58:45;10.00;;;7.95;;
7027;SDS011;3555;53.248;10.336;2022-09-13T05:01:11;9.65;;;6.80;;
7027;SDS011;3555;53.248;10.336;2022-09-13T05:03:38;8.70;;;7.57;;
7027;SDS011;3555;53.248;10.336;2022-09-13T05:06:06;8.80;;;6.57;;
7027;SDS011;3555;53.248;10.336;2022-09-13T05:08:34;8.43;;;7.07;;
7027;SDS011;3555;53.248;10.336;2022-09-13T05:11:01;7.35;;;6.40;;
7027;SDS011;3555;53.248;10.336;2022-09-13T05:13:28;9.95;;;6.97;;
7027;SDS011;3555;53.248;10.336;2022-09-13T05:15:57;8.02;;;6.65;;
7027;SDS011;3555;53.248;10.336;2022-09-13T05:18:25;7.72;;;6.30;;
7027;SDS011;3555;53.248;10.336;2022-09-13T05:20:53;8.20;;;6.72;;
7027;SDS011;3555;53.248;10.336;2022-09-13T05:23:20;9.07;;;6.97;;
7027;SDS011;3555;53.248;10.336;2022-09-13T05:25:51;7.18;;;6.38;;
7027;SDS011;3555;53.248;10.336;2022-09-13T05:28:18;7.53;;;6.32;;
7027;SDS011;3555;53.248;10.336;2022-09-13T05:30:52;7.80;;;6.10;;
7027;SDS011;3555;53.248;10.336;2022-09-13T05:33:22;8.15;;;6.25;;
7027;SDS011;3555;53.248;10.336;2022-09-13T05:35:49;8.35;;;5.90;;
7027;SDS011;3555;53.248;10.336;2022-09-13T05:38:15;8.77;;;7.18;;
7027;SDS011;3555;53.248;10.336;2022-09-13T05:40:42;8.32;;;6.60;;
7027;SDS011;3555;53.248;10.336;2022-09-13T05:43:09;10.18;;;6.68;;
7027;SDS011;3555;53.248;10.336;2022-09-13T05:45:36;8.98;;;7.75;;
7027;SDS011;3555;53.248;10.336;2022-09-13T05:48:03;9.40;;;7.78;;
7027;SDS011;3555;53.248;10.336;2022-09-13T05:50:31;10.68;;;7.60;;
7027;SDS011;3555;53.248;10.336;2022-09-13T05:53:02;10.02;;;7.82;;
7027;SDS011;3555;53.248;10.336;2022-09-13T05:55:28;9.15;;;7.53;;
7027;SDS011;3555;53.248;10.336;2022-09-13T05:57:56;9.68;;;7.35;;
7027;SDS011;3555;53.248;10.336;2022-09-13T06:00:23;8.90;;;7.72;;
7027;SDS011;3555;53.248;10.336;2022-09-13T06:02:50;9.93;;;7.32;;
7027;SDS011;3555;53.248;10.336;2022-09-13T06:05:16;8.13;;;6.65;;
7027;SDS011;3555;53.248;10.336;2022-09-13T06:07:44;12.52;;;7.13;;
7027;SDS011;3555;53.248;10.336;2022-09-13T06:10:11;9.98;;;8.00;;
7027;SDS011;3555;53.248;10.336;2022-09-13T06:12:38;8.93;;;7.75;;
7027;SDS011;3555;53.248;10.336;2022-09-13T06:15:06;9.73;;;8.23;;
7027;SDS011;3555;53.248;10.336;2022-09-13T06:17:35;10.48;;;8.50;;
7027;SDS011;3555;53.248;10.336;2022-09-13T06:20:02;10.63;;;8.43;;
7027;SDS011;3555;53.248;10.336;2022-09-13T06:22:29;12.25;;;9.00;;
7027;SDS011;3555;53.248;10.336;2022-09-13T06:25:00;11.55;;;9.73;;
7027;SDS011;3555;53.248;10.336;2022-09-13T06:27:28;11.73;;;9.50;;
7027;SDS011;3555;53.248;10.336;2022-09-13T06:29:55;11.68;;;9.07;;
7027;SDS011;3555;53.248;10.336;2022-09-13T06:32:22;12.73;;;9.40;;
7027;SDS011;3555;53.248;10.336;2022-09-13T06:34:48;13.63;;;10.02;;
7027;SDS011;3555;53.248;10.336;2022-09-13T06:37:15;11.13;;;9.23;;
7027;SDS011;3555;53.248;10.336;2022-09-13T06:39:42;13.23;;;9.57;;
7027;SDS011;3555;53.248;10.336;2022-09-13T06:42:10;11.48;;;9.88;;
7027;SDS011;3555;53.248;10.336;2022-09-13T06:44:37;14.73;;;10.13;;
7027;SDS011;3555;53.248;10.336;2022-09-13T06:47:04;11.85;;;9.85;;
7027;SDS011;3555;53.248;10.336;2022-09-13T06:49:30;12.18;;;10.02;;
7027;SDS011;3555;53.248;10.336;2022-09-13T06:51:57;12.38;;;10.75;;
7027;SDS011;3555;53.248;10.336;2022-09-13T06:54:24;12.40;;;9.43;;
7027;SDS011;3555;53.248;10.336;2022-09-13T06:56:51;12.50;;;10.60;;
7027;SDS011;3555;53.248;10.336;2022-09-13T06:59:19;13.50;;;10.13;;
7027;SDS011;3555;53.248;10.336;2022-09-13T07:01:46;13.90;;;10.25;;
7027;SDS011;3555;53.248;10.336;2022-09-13T07:04:13;13.13;;;10.15;;
7027;SDS011;3555;53.248;10.336;2022-09-13T07:06:43;13.50;;;10.38;;
7027;SDS011;3555;53.248;10.336;2022-09-13T07:09:12;15.98;;;11.38;;
7027;SDS011;3555;53.248;10.336;2022-09-13T07:11:42;17.40;;;11.00;;
7027;SDS011;3555;53.248;10.336;2022-09-13T07:14:11;15.40;;;11.48;;
7027;SDS011;3555;53.248;10.336;2022-09-13T07:16:40;14.45;;;10.88;;
7027;SDS011;3555;53.248;10.336;2022-09-13T07:19:11;12.30;;;10.15;;
7027;SDS011;3555;53.248;10.336;2022-09-13T07:21:38;13.82;;;11.52;;
7027;SDS011;3555;53.248;10.336;2022-09-13T07:24:05;14.07;;;10.70;;
7027;SDS011;3555;53.248;10.336;2022-09-13T07:26:32;14.55;;;11.07;;
7027;SDS011;3555;53.248;10.336;2022-09-13T07:29:00;16.60;;;13.23;;
7027;SDS011;3555;53.248;10.336;2022-09-13T07:31:28;15.80;;;11.75;;
7027;SDS011;3555;53.248;10.336;2022-09-13T07:33:58;15.00;;;11.98;;
7027;SDS011;3555;53.248;10.336;2022-09-13T07:36:26;17.63;;;12.40;;
7027;SDS011;3555;53.248;10.336;2022-09-13T07:38:54;14.40;;;11.77;;
7027;SDS011;3555;53.248;10.336;2022-09-13T07:41:21;16.90;;;13.05;;
7027;SDS011;3555;53.248;10.336;2022-09-13T07:43:50;15.35;;;12.68;;
7027;SDS011;3555;53.248;10.336;2022-09-13T07:46:17;14.82;;;10.95;;
7027;SDS011;3555;53.248;10.336;2022-09-13T07:48:46;14.48;;;11.23;;
7027;SDS011;3555;53.248;10.336;2022-09-13T07:51:16;13.35;;;11.48;;
7027;SDS011;3555;53.248;10.336;2022-09-13T07:53:44;14.05;;;10.52;;
7027;SDS011;3555;53.248;10.336;2022-09-13T07:56:13;14.98;;;10.73;;
7027;SDS011;3555;53.248;10.336;2022-09-13T07:58:42;14.57;;;11.15;;
7027;SDS011;3555;53.248;10.336;2022-09-13T08:01:11;13.40;;;10.88;;
7027;SDS011;3555;53.248;10.336;2022-09-13T08:03:39;14.05;;;10.48;;
7027;SDS011;3555;53.248;10.336;2022-09-13T08:06:06;14.27;;;11.38;;
7027;SDS011;3555;53.248;10.336;2022-09-13T08:08:35;13.52;;;10.57;;
7027;SDS011;3555;53.248;10.336;2022-09-13T08:11:03;14.85;;;12.00;;
7027;SDS011;3555;53.248;10.336;2022-09-13T08:13:31;13.15;;;10.60;;
7027;SDS011;3555;53.248;10.336;2022-09-13T08:15:59;13.05;;;10.30;;
7027;SDS011;3555;53.248;10.336;2022-09-13T08:18:27;10.98;;;9.80;;
7027;SDS011;3555;53.248;10.336;2022-09-13T08:20:54;14.20;;;10.00;;
7027;SDS011;3555;53.248;10.336;2022-09-13T08:23:22;11.18;;;9.23;;
7027;SDS011;3555;53.248;10.336;2022-09-13T08:25:51;13.52;;;10.75;;
7027;SDS011;3555;53.248;10.336;2022-09-13T08:28:18;11.60;;;8.40;;
7027;SDS011;3555;53.248;10.336;2022-09-13T08:30:46;11.88;;;9.60;;
7027;SDS011;3555;53.248;10.336;2022-09-13T08:33:14;13.18;;;9.88;;
7027;SDS011;3555;53.248;10.336;2022-09-13T08:35:48;11.00;;;9.38;;
7027;SDS011;3555;53.248;10.336;2022-09-13T08:38:15;13.60;;;9.43;;
7027;SDS011;3555;53.248;10.336;2022-09-13T08:40:42;11.05;;;8.77;;
7027;SDS011;3555;53.248;10.336;2022-09-13T08:43:15;12.43;;;9.80;;
7027;SDS011;3555;53.248;10.336;2022-09-13T08:45:48;12.27;;;9.73;;
7027;SDS011;3555;53.248;10.336;2022-09-13T08:48:17;12.13;;;9.63;;
7027;SDS011;3555;53.248;10.336;2022-09-13T08:50:50;13.15;;;9.52;;
7027;SDS011;3555;53.248;10.336;2022-09-13T08:53:19;14.90;;;9.77;;
7027;SDS011;3555;53.248;10.336;2022-09-13T08:55:53;12.27;;;10.13;;
7027;SDS011;3555;53.248;10.336;2022-09-13T08:58:42;13.45;;;10.00;;
7027;SDS011;3555;53.248;10.336;2022-09-13T09:01:23;9.13;;;7.47;;
7027;SDS011;3555;53.248;10.336;2022-09-13T09:04:01;10.15;;;7.68;;
7027;SDS011;3555;53.248;10.336;2022-09-13T09:06:35;10.23;;;8.25;;
7027;SDS011;3555;53.248;10.336;2022-09-13T09:09:03;10.35;;;8.25;;
7027;SDS011;3555;53.248;10.336;2022-09-13T09:11:34;12.80;;;9.13;;
7027;SDS011;3555;53.248;10.336;2022-09-13T09:14:11;10.40;;;8.32;;
7027;SDS011;3555;53.248;10.336;2022-09-13T09:16:44;10.32;;;7.70;;
7027;SDS011;3555;53.248;10.336;2022-09-13T09:19:15;11.00;;;7.47;;
7027;SDS011;3555;53.248;10.336;2022-09-13T09:21:47;8.65;;;6.88;;
7027;SDS011;3555;53.248;10.336;2022-09-13T09:24:17;10.68;;;7.35;;
7027;SDS011;3555;53.248;10.336;2022-09-13T09:26:46;10.05;;;7.10;;
7027;SDS011;3555;53.248;10.336;2022-09-13T09:29:19;9.15;;;7.53;;
7027;SDS011;3555;53.248;10.336;2022-09-13T09:31:53;9.68;;;6.93;;
7027;SDS011;3555;53.248;10.336;2022-09-13T09:34:32;10.23;;;7.32;;
7027;SDS011;3555;53.248;10.336;2022-09-13T09:37:11;8.38;;;5.90;;
7027;SDS011;3555;53.248;10.336;2022-09-13T09:39:42;7.57;;;5.53;;
7027;SDS011;3555;53.248;10.336;2022-09-13T09:42:10;7.15;;;4.28;;
7027;SDS011;3555;53.248;10.336;2022-09-13T09:44:40;7.47;;;5.65;;
7027;SDS011;3555;53.248;10.336;2022-09-13T09:47:11;9.73;;;6.20;;
7027;SDS011;3555;53.248;10.336;2022-09-13T09:49:41;9.02;;;6.00;;
7027;SDS011;3555;53.248;10.336;2022-09-13T09:52:31;9.30;;;6.05;;
7027;SDS011;3555;53.248;10.336;2022-09-13T09:55:09;5.57;;;4.80;;
7027;SDS011;3555;53.248;10.336;2022-09-13T09:57:49;8.02;;;4.70;;
7027;SDS011;3555;53.248;10.336;2022-09-13T10:00:19;7.20;;;4.80;;
7027;SDS011;3555;53.248;10.336;2022-09-13T10:02:51;8.65;;;4.53;;
7027;SDS011;3555;53.248;10.336;2022-09-13T10:05:22;6.70;;;4.47;;
7027;SDS011;3555;53.248;10.336;2022-09-13T10:07:59;5.22;;;3.08;;
7027;SDS011;3555;53.248;10.336;2022-09-13T10:10:37;5.68;;;3.13;;
7027;SDS011;3555;53.248;10.336;2022-09-13T10:13:11;6.57;;;3.10;;
7027;SDS011;3555;53.248;10.336;2022-09-13T10:15:51;5.45;;;2.50;;
7027;SDS011;3555;53.248;10.336;2022-09-13T10:18:19;4.97;;;2.30;;
7027;SDS011;3555;53.248;10.336;2022-09-13T10:20:58;5.25;;;2.00;;
7027;SDS011;3555;53.248;10.336;2022-09-13T10:23:27;4.32;;;1.80;;
7027;SDS011;3555;53.248;10.336;2022-09-13T10:25:55;3.78;;;1.70;;
7027;SDS011;3555;53.248;10.336;2022-09-13T10:28:27;4.93;;;1.67;;
7027;SDS011;3555;53.248;10.336;2022-09-13T10:30:57;8.30;;;2.22;;
7027;SDS011;3555;53.248;10.336;2022-09-13T10:33:28;6.40;;;2.20;;
7027;SDS011;3555;53.248;10.336;2022-09-13T10:35:58;3.22;;;1.20;;
7027;SDS011;3555;53.248;10.336;2022-09-13T10:38:29;4.65;;;1.20;;
7027;SDS011;3555;53.248;10.336;2022-09-13T10:40:57;4.10;;;1.30;;
7027;SDS011;3555;53.248;10.336;2022-09-13T10:43:26;5.75;;;1.42;;
7027;SDS011;3555;53.248;10.336;2022-09-13T10:45:56;2.92;;;1.08;;
7027;SDS011;3555;53.248;10.336;2022-09-13T10:48:24;4.78;;;1.38;;
7027;SDS011;3555;53.248;10.336;2022-09-13T10:50:59;4.30;;;1.27;;
7027;SDS011;3555;53.248;10.336;2022-09-13T10:53:35;5.72;;;1.50;;
7027;SDS011;3555;53.248;10.336;2022-09-13T10:56:04;3.63;;;1.10;;
7027;SDS011;3555;53.248;10.336;2022-09-13T10:58:31;4.00;;;1.38;;
7027;SDS011;3555;53.248;10.336;2022-09-13T11:04:11;4.43;;;1.42;;
7027;SDS011;3555;53.248;10.336;2022-09-13T11:07:25;5.43;;;1.48;;
7027;SDS011;3555;53.248;10.336;2022-09-13T11:10:05;6.68;;;1.55;;
7027;SDS011;3555;53.248;10.336;2022-09-13T11:12:40;5.18;;;1.30;;
7027;SDS011;3555;53.248;10.336;2022-09-13T11:15:18;4.75;;;1.20;;
7027;SDS011;3555;53.248;10.336;2022-09-13T11:18:01;4.32;;;1.50;;
7027;SDS011;3555;53.248;10.336;2022-09-13T11:20:49;5.85;;;1.27;;
7027;SDS011;3555;53.248;10.336;2022-09-13T11:23:26;4.03;;;1.23;;
7027;SDS011;3555;53.248;10.336;2022-09-13T11:29:19;2.17;;;0.77;;
7027;SDS011;3555;53.248;10.336;2022-09-13T11:32:00;2.63;;;1.00;;
7027;SDS011;3555;53.248;10.336;2022-09-13T11:34:43;2.35;;;1.00;;
7027;SDS011;3555;53.248;10.336;2022-09-13T11:37:23;4.50;;;1.00;;
7027;SDS011;3555;53.248;10.336;2022-09-13T11:40:10;3.97;;;1.15;;
7027;SDS011;3555;53.248;10.336;2022-09-13T11:42:55;2.80;;;0.80;;
7027;SDS011;3555;53.248;10.336;2022-09-13T11:45:30;6.05;;;0.90;;
7027;SDS011;3555;53.248;10.336;2022-09-13T11:48:09;3.50;;;1.35;;
7027;SDS011;3555;53.248;10.336;2022-09-13T11:50:51;3.45;;;1.15;;
7027;SDS011;3555;53.248;10.336;2022-09-13T11:53:35;3.05;;;1.23;;
7027;SDS011;3555;53.248;10.336;2022-09-13T11:56:09;4.95;;;0.95;;
7027;SDS011;3555;53.248;10.336;2022-09-13T11:58:41;4.97;;;1.00;;
7027;SDS011;3555;53.248;10.336;2022-09-13T12:01:15;3.10;;;0.88;;
7027;SDS011;3555;53.248;10.336;2022-09-13T12:03:46;5.43;;;1.10;;
7027;SDS011;3555;53.248;10.336;2022-09-13T12:06:19;3.15;;;0.73;;
7027;SDS011;3555;53.248;10.336;2022-09-13T12:08:53;3.50;;;1.13;;
7027;SDS011;3555;53.248;10.336;2022-09-13T12:11:25;4.18;;;0.90;;
7027;SDS011;3555;53.248;10.336;2022-09-13T12:13:57;4.78;;;0.90;;
7027;SDS011;3555;53.248;10.336;2022-09-13T12:16:27;5.45;;;1.55;;
7027;SDS011;3555;53.248;10.336;2022-09-13T12:18:57;5.43;;;1.02;;
7027;SDS011;3555;53.248;10.336;2022-09-13T12:21:29;2.35;;;0.85;;
7027;SDS011;3555;53.248;10.336;2022-09-13T12:24:01;3.88;;;1.08;;
7027;SDS011;3555;53.248;10.336;2022-09-13T12:26:32;5.13;;;1.02;;
7027;SDS011;3555;53.248;10.336;2022-09-13T12:29:06;4.07;;;0.98;;
7027;SDS011;3555;53.248;10.336;2022-09-13T12:31:38;2.63;;;1.00;;
7027;SDS011;3555;53.248;10.336;2022-09-13T12:34:06;4.15;;;1.10;;
7027;SDS011;3555;53.248;10.336;2022-09-13T12:36:50;4.05;;;1.13;;
7027;SDS011;3555;53.248;10.336;2022-09-13T12:39:53;4.80;;;1.15;;
7027;SDS011;3555;53.248;10.336;2022-09-13T12:48:30;4.97;;;0.90;;
7027;SDS011;3555;53.248;10.336;2022-09-13T12:51:19;4.50;;;1.20;;
7027;SDS011;3555;53.248;10.336;2022-09-13T12:54:14;3.83;;;1.10;;
7027;SDS011;3555;53.248;10.336;2022-09-13T12:57:08;3.65;;;0.90;;
7027;SDS011;3555;53.248;10.336;2022-09-13T12:59:57;4.90;;;1.02;;
7027;SDS011;3555;53.248;10.336;2022-09-13T13:02:37;3.80;;;1.00;;
7027;SDS011;3555;53.248;10.336;2022-09-13T13:05:14;3.70;;;1.10;;
7027;SDS011;3555;53.248;10.336;2022-09-13T13:07:49;4.18;;;1.10;;
7027;SDS011;3555;53.248;10.336;2022-09-13T13:10:26;4.22;;;1.02;;
7027;SDS011;3555;53.248;10.336;2022-09-13T13:12:55;4.10;;;0.85;;
7027;SDS011;3555;53.248;10.336;2022-09-13T13:18:25;4.90;;;1.00;;
7027;SDS011;3555;53.248;10.336;2022-09-13T13:21:04;4.18;;;0.98;;
7027;SDS011;3555;53.248;10.336;2022-09-13T13:23:47;3.33;;;0.88;;
7027;SDS011;3555;53.248;10.336;2022-09-13T13:26:54;2.75;;;0.98;;
7027;SDS011;3555;53.248;10.336;2022-09-13T13:29:23;3.53;;;1.25;;
7027;SDS011;3555;53.248;10.336;2022-09-13T13:32:09;7.03;;;1.00;;
7027;SDS011;3555;53.248;10.336;2022-09-13T13:34:38;4.45;;;0.90;;
7027;SDS011;3555;53.248;10.336;2022-09-13T13:40:11;5.53;;;1.05;;
7027;SDS011;3555;53.248;10.336;2022-09-13T13:42:48;6.78;;;1.40;;
7027;SDS011;3555;53.248;10.336;2022-09-13T13:45:20;5.20;;;1.48;;
7027;SDS011;3555;53.248;10.336;2022-09-13T13:47:54;4.32;;;0.80;;
7027;SDS011;3555;53.248;10.336;2022-09-13T13:50:32;3.72;;;1.10;;
7027;SDS011;3555;53.248;10.336;2022-09-13T13:53:16;2.95;;;0.80;;
7027;SDS011;3555;53.248;10.336;2022-09-13T13:55:47;4.20;;;1.10;;
7027;SDS011;3555;53.248;10.336;2022-09-13T13:58:32;5.25;;;1.05;;
7027;SDS011;3555;53.248;10.336;2022-09-13T14:01:12;2.25;;;0.75;;
7027;SDS011;3555;53.248;10.336;2022-09-13T14:03:57;2.88;;;1.00;;
7027;SDS011;3555;53.248;10.336;2022-09-13T14:06:36;3.40;;;0.80;;
7027;SDS011;3555;53.248;10.336;2022-09-13T14:09:12;4.38;;;1.05;;
7027;SDS011;3555;53.248;10.336;2022-09-13T14:11:55;4.68;;;1.20;;
7027;SDS011;3555;53.248;10.336;2022-09-13T14:14:38;3.53;;;0.90;;
7027;SDS011;3555;53.248;10.336;2022-09-13T14:17:26;2.83;;;1.00;;
7027;SDS011;3555;53.248;10.336;2022-09-13T14:20:08;3.92;;;1.10;;
7027;SDS011;3555;53.248;10.336;2022-09-13T14:22:37;5.30;;;1.08;;
7027;SDS011;3555;53.248;10.336;2022-09-13T14:25:12;4.45;;;1.10;;
7027;SDS011;3555;53.248;10.336;2022-09-13T14:27:41;4.25;;;1.17;;
7027;SDS011;3555;53.248;10.336;2022-09-13T14:30:16;2.65;;;0.90;;
7027;SDS011;3555;53.248;10.336;2022-09-13T14:32:46;4.10;;;0.90;;
7027;SDS011;3555;53.248;10.336;2022-09-13T14:35:23;5.00;;;1.17;;
7027;SDS011;3555;53.248;10.336;2022-09-13T14:37:52;3.58;;;0.95;;
7027;SDS011;3555;53.248;10.336;2022-09-13T14:40:21;3.08;;;0.88;;
7027;SDS011;3555;53.248;10.336;2022-09-13T14:42:50;4.97;;;1.05;;
7027;SDS011;3555;53.248;10.336;2022-09-13T14:45:20;4.57;;;1.20;;
7027;SDS011;3555;53.248;10.336;2022-09-13T14:47:52;4.90;;;1.00;;
7027;SDS011;3555;53.248;10.336;2022-09-13T14:50:23;3.67;;;1.00;;
7027;SDS011;3555;53.248;10.336;2022-09-13T14:52:52;5.35;;;1.10;;
7027;SDS011;3555;53.248;10.336;2022-09-13T14:55:22;4.80;;;0.88;;
7027;SDS011;3555;53.248;10.336;2022-09-13T14:57:53;3.78;;;1.08;;
7027;SDS011;3555;53.248;10.336;2022-09-13T15:00:25;2.75;;;1.00;;
7027;SDS011;3555;53.248;10.336;2022-09-13T15:02:53;4.78;;;1.48;;
7027;SDS011;3555;53.248;10.336;2022-09-13T15:05:23;2.53;;;0.95;;
7027;SDS011;3555;53.248;10.336;2022-09-13T15:07:52;4.68;;;0.90;;
7027;SDS011;3555;53.248;10.336;2022-09-13T15:10:21;1.63;;;0.68;;
7027;SDS011;3555;53.248;10.336;2022-09-13T15:12:52;3.20;;;0.80;;
7027;SDS011;3555;53.248;10.336;2022-09-13T15:15:27;3.60;;;1.02;;
7027;SDS011;3555;53.248;10.336;2022-09-13T15:17:59;6.18;;;0.93;;
7027;SDS011;3555;53.248;10.336;2022-09-13T15:20:27;4.95;;;1.33;;
7027;SDS011;3555;53.248;10.336;2022-09-13T15:22:55;4.22;;;1.13;;
7027;SDS011;3555;53.248;10.336;2022-09-13T15:25:23;5.15;;;1.00;;
7027;SDS011;3555;53.248;10.336;2022-09-13T15:27:52;3.90;;;0.90;;
7027;SDS011;3555;53.248;10.336;2022-09-13T15:30:21;2.67;;;0.90;;
7027;SDS011;3555;53.248;10.336;2022-09-13T15:33:03;3.17;;;1.05;;
7027;SDS011;3555;53.248;10.336;2022-09-13T15:35:34;6.43;;;1.08;;
7027;SDS011;3555;53.248;10.336;2022-09-13T15:38:13;8.23;;;1.15;;
7027;SDS011;3555;53.248;10.336;2022-09-13T15:40:56;2.72;;;0.88;;
7027;SDS011;3555;53.248;10.336;2022-09-13T15:43:25;3.53;;;0.90;;
7027;SDS011;3555;53.248;10.336;2022-09-13T15:45:51;3.90;;;1.05;;
7027;SDS011;3555;53.248;10.336;2022-09-13T15:48:21;4.75;;;1.00;;